createdAt,value
2022-11-12T00:00:30.440Z,2.00
2022-11-12T00:03:15.711Z,2.04
2022-11-12T00:06:01.015Z,2.04
2022-11-12T00:08:46.518Z,2.06
2022-11-12T00:11:32.346Z,2.10
2022-11-12T00:14:18.081Z,2.10
2022-11-12T00:17:03.467Z,2.38
2022-11-12T00:19:49.230Z,2.34
2022-11-12T00:22:34.981Z,2.06
2022-11-12T00:25:20.673Z,1.95
2022-11-12T00:28:09.486Z,1.92
2022-11-12T00:30:54.823Z,2.04
2022-11-12T00:33:42.135Z,2.22
2022-11-12T00:36:27.744Z,2.18
2022-11-12T00:39:13.412Z,2.37
2022-11-12T00:41:59.027Z,2.29
2022-11-12T00:44:44.453Z,2.30
2022-11-12T00:47:29.745Z,2.17
2022-11-12T00:50:16.217Z,2.21
2022-11-12T00:53:01.768Z,1.86
2022-11-12T00:55:47.158Z,1.73
2022-11-12T00:58:34.752Z,1.74
2022-11-12T01:01:21.234Z,1.48
2022-11-12T01:04:08.253Z,1.43
2022-11-12T01:06:53.803Z,1.30
2022-11-12T01:09:40.210Z,1.23
2022-11-12T01:12:25.547Z,1.22
2022-11-12T01:15:11.088Z,1.33
2022-11-12T01:17:56.790Z,1.60
2022-11-12T01:20:42.177Z,1.67
2022-11-12T01:23:27.718Z,1.59
2022-11-12T01:26:17.232Z,1.36
2022-11-12T01:29:03.482Z,1.45
2022-11-12T01:31:49.043Z,1.37
2022-11-12T01:34:34.748Z,1.34
2022-11-12T01:37:20.005Z,1.22
2022-11-12T01:40:06.700Z,1.15
2022-11-12T01:42:53.233Z,1.11
2022-11-12T01:45:42.994Z,1.18
2022-11-12T01:48:41.314Z,1.10
2022-11-12T01:51:34.566Z,1.51
2022-11-12T01:54:21.672Z,1.75
2022-11-12T01:57:10.190Z,1.78
2022-11-12T02:00:05.441Z,1.96
2022-11-12T02:02:58.752Z,2.21
2022-11-12T02:05:48.304Z,2.11
2022-11-12T02:08:35.213Z,1.96
2022-11-12T02:11:21.968Z,1.93
2022-11-12T02:14:07.845Z,2.02
2022-11-12T02:16:53.953Z,1.91
2022-11-12T02:19:39.644Z,1.84
2022-11-12T02:22:25.070Z,2.03
2022-11-12T02:25:17.430Z,2.13
2022-11-12T02:28:08.322Z,2.09
2022-11-12T02:30:53.795Z,1.37
2022-11-12T02:33:39.049Z,1.07
2022-11-12T02:36:24.656Z,0.96
2022-11-12T02:39:10.150Z,0.89
2022-11-12T02:41:55.457Z,0.82
2022-11-12T02:44:41.209Z,0.63
2022-11-12T02:47:27.053Z,0.73
2022-11-12T02:50:12.731Z,0.86
2022-11-12T02:52:58.235Z,1.05
2022-11-12T02:55:43.998Z,0.82
2022-11-12T02:58:30.478Z,0.68
2022-11-12T03:01:16.067Z,0.57
2022-11-12T03:04:02.071Z,0.54
2022-11-12T03:06:47.598Z,0.53
2022-11-12T03:09:32.971Z,0.55
2022-11-12T03:12:18.654Z,0.50
2022-11-12T03:15:04.903Z,0.69
2022-11-12T03:17:50.614Z,0.95
2022-11-12T03:20:36.017Z,1.18
2022-11-12T03:23:21.731Z,1.37
2022-11-12T03:26:07.580Z,1.50
2022-11-12T03:28:52.796Z,1.45
2022-11-12T03:31:39.259Z,1.48
2022-11-12T03:34:24.725Z,1.50
2022-11-12T03:37:10.387Z,1.04
2022-11-12T03:39:55.937Z,0.65
2022-11-12T03:42:49.760Z,0.50
2022-11-12T03:45:35.476Z,0.43
2022-11-12T03:48:21.227Z,0.51
2022-11-12T03:51:06.821Z,0.54
2022-11-12T03:53:52.394Z,0.85
2022-11-12T03:56:37.932Z,0.89
2022-11-12T03:59:23.213Z,0.94
2022-11-12T04:02:14.364Z,1.24
2022-11-12T04:05:18.967Z,1.59
2022-11-12T04:08:28.805Z,1.61
2022-11-12T04:11:16.406Z,1.16
2022-11-12T04:14:02.278Z,1.09
2022-11-12T04:17:05.837Z,1.07
2022-11-12T04:20:09.801Z,1.10
2022-11-12T04:22:55.484Z,1.36
2022-11-12T04:25:59.625Z,1.19
2022-11-12T04:29:05.204Z,1.02
2022-11-12T04:31:50.833Z,1.05
2022-11-12T04:34:36.329Z,1.36
2022-11-12T04:37:25.126Z,1.41
2022-11-12T04:40:41.321Z,1.45
2022-11-12T04:43:45.842Z,1.74
2022-11-12T04:46:31.862Z,2.06
2022-11-12T04:49:17.548Z,2.06
2022-11-12T04:52:06.265Z,2.03
2022-11-12T04:54:52.810Z,1.64
2022-11-12T04:57:38.962Z,1.38
2022-11-12T05:00:24.889Z,1.31
2022-11-12T05:03:10.478Z,1.42
2022-11-12T05:06:25.869Z,1.58
2022-11-12T05:09:11.350Z,1.57
2022-11-12T05:11:57.408Z,1.54
2022-11-12T05:14:42.702Z,1.33
2022-11-12T05:17:28.250Z,1.25
2022-11-12T05:20:14.828Z,1.22
2022-11-12T05:23:08.022Z,1.23
2022-11-12T05:25:53.539Z,1.33
2022-11-12T05:28:38.807Z,1.30
2022-11-12T05:31:24.156Z,1.41
2022-11-12T05:34:09.696Z,1.78
2022-11-12T05:36:55.081Z,1.76
2022-11-12T05:39:40.728Z,1.73
2022-11-12T05:42:25.976Z,1.33
2022-11-12T05:45:11.622Z,1.32
2022-11-12T05:47:56.892Z,1.18
2022-11-12T05:50:58.575Z,1.17
2022-11-12T05:53:47.928Z,1.10
2022-11-12T05:56:33.252Z,1.20
2022-11-12T05:59:18.612Z,1.20
2022-11-12T06:02:04.161Z,1.10
2022-11-12T06:04:50.013Z,1.10
2022-11-12T06:07:35.564Z,1.11
2022-11-12T06:10:21.057Z,1.06
2022-11-12T06:13:06.927Z,1.06
2022-11-12T06:15:54.126Z,1.02
2022-11-12T06:18:39.446Z,1.05
2022-11-12T06:21:27.278Z,1.00
2022-11-12T06:24:13.106Z,0.98
2022-11-12T06:26:58.446Z,0.94
2022-11-12T06:29:43.868Z,0.93
2022-11-12T06:32:29.158Z,0.90
2022-11-12T06:35:15.491Z,0.90
2022-11-12T06:38:01.195Z,1.08
2022-11-12T06:40:46.637Z,1.04
2022-11-12T06:43:33.797Z,1.09
2022-11-12T06:46:19.758Z,1.64
2022-11-12T06:49:05.084Z,1.57
2022-11-12T06:51:51.676Z,1.60
2022-11-12T06:54:36.995Z,1.55
2022-11-12T06:57:22.243Z,1.56
2022-11-12T07:00:10.416Z,1.61
2022-11-12T07:02:56.032Z,1.58
2022-11-12T07:05:41.480Z,1.85
2022-11-12T07:08:27.420Z,1.75
2022-11-12T07:11:13.619Z,2.11
2022-11-12T07:13:59.003Z,2.01
2022-11-12T07:16:44.291Z,1.90
2022-11-12T07:19:29.549Z,2.41
2022-11-12T07:22:15.076Z,2.58
2022-11-12T07:25:00.422Z,2.91
2022-11-12T07:27:45.749Z,3.10
2022-11-12T07:30:31.138Z,3.39
2022-11-12T07:33:16.454Z,3.69
2022-11-12T07:36:08.361Z,4.00
2022-11-12T07:38:54.667Z,4.32
2022-11-12T07:41:40.049Z,4.52
2022-11-12T07:44:25.416Z,4.64
2022-11-12T07:47:10.814Z,4.90
2022-11-12T07:49:56.176Z,4.32
2022-11-12T07:52:41.445Z,5.01
2022-11-12T07:55:26.732Z,4.61
2022-11-12T07:58:12.117Z,5.09
2022-11-12T08:00:57.438Z,6.11
2022-11-12T08:03:42.648Z,6.43
2022-11-12T08:06:30.280Z,7.43
2022-11-12T08:09:15.488Z,7.65
2022-11-12T08:12:00.870Z,7.71
2022-11-12T08:14:46.091Z,7.92
2022-11-12T08:17:31.740Z,7.97
2022-11-12T08:20:17.108Z,8.43
2022-11-12T08:23:02.499Z,8.87
2022-11-12T08:25:48.010Z,8.70
2022-11-12T08:28:35.994Z,8.30
2022-11-12T08:31:23.031Z,9.03
2022-11-12T08:34:17.413Z,8.49
2022-11-12T08:37:07.514Z,7.77
2022-11-12T08:39:52.876Z,7.61
2022-11-12T08:42:38.275Z,7.86
2022-11-12T08:45:23.659Z,8.41
2022-11-12T08:48:14.484Z,9.41
2022-11-12T08:51:02.768Z,10.14
2022-11-12T08:53:48.153Z,10.50
2022-11-12T08:56:34.167Z,11.32
2022-11-12T08:59:19.730Z,11.23
2022-11-12T09:02:06.678Z,11.89
2022-11-12T09:04:52.193Z,12.34
2022-11-12T09:07:53.047Z,13.12
2022-11-12T09:10:39.727Z,13.33
2022-11-12T09:13:25.400Z,14.05
2022-11-12T09:16:11.230Z,14.27
2022-11-12T09:18:56.573Z,14.45
2022-11-12T09:21:41.801Z,14.20
2022-11-12T09:24:27.106Z,14.59
2022-11-12T09:27:12.368Z,14.22
2022-11-12T09:29:57.748Z,14.65
2022-11-12T09:32:43.198Z,14.67
2022-11-12T09:35:28.603Z,14.07
2022-11-12T09:38:15.385Z,13.84
2022-11-12T09:41:24.110Z,14.02
2022-11-12T09:44:22.013Z,14.24
2022-11-12T09:47:21.004Z,14.31
2022-11-12T09:50:18.838Z,14.66
2022-11-12T09:53:18.697Z,13.98
2022-11-12T09:56:11.486Z,14.13
2022-11-12T09:58:57.210Z,13.98
2022-11-12T10:01:57.045Z,14.33
2022-11-12T10:05:12.704Z,14.32
2022-11-12T10:08:22.446Z,14.28
2022-11-12T10:12:04.034Z,14.35
2022-11-12T10:15:32.870Z,14.11
2022-11-12T10:18:49.320Z,14.37
2022-11-12T10:21:59.210Z,14.41
2022-11-12T10:24:45.636Z,14.75
2022-11-12T10:27:41.962Z,14.74
2022-11-12T10:30:27.214Z,15.10
2022-11-12T10:33:16.018Z,14.97
2022-11-12T10:36:26.514Z,14.94
2022-11-12T10:39:42.265Z,15.11
2022-11-12T10:42:27.821Z,15.36
2022-11-12T10:45:22.003Z,15.50
2022-11-12T10:48:35.054Z,15.38
2022-11-12T10:51:31.816Z,15.23
2022-11-12T10:54:37.924Z,15.48
2022-11-12T10:57:26.584Z,15.10
2022-11-12T11:00:18.972Z,15.31
2022-11-12T11:03:19.761Z,14.95
2022-11-12T11:06:14.640Z,15.55
2022-11-12T11:09:12.384Z,15.97
2022-11-12T11:11:58.211Z,16.22
2022-11-12T11:14:44.643Z,16.38
2022-11-12T11:17:30.908Z,17.01
2022-11-12T11:20:44.740Z,16.56
2022-11-12T11:23:56.540Z,17.39
2022-11-12T11:26:47.726Z,17.93
2022-11-12T11:29:47.917Z,18.15
2022-11-12T11:32:38.957Z,18.39
2022-11-12T11:35:39.303Z,18.36
2022-11-12T11:38:39.099Z,18.21
2022-11-12T11:42:14.589Z,18.06
2022-11-12T11:45:29.091Z,17.76
2022-11-12T11:48:41.819Z,17.48
2022-11-12T11:51:38.713Z,17.83
2022-11-12T11:55:01.114Z,18.14
2022-11-12T11:58:03.132Z,19.00
2022-11-12T12:01:19.129Z,18.95
2022-11-12T12:05:11.092Z,19.06
2022-11-12T12:08:07.169Z,18.71
2022-11-12T12:11:32.078Z,18.54
2022-11-12T12:14:44.752Z,18.91
2022-11-12T12:18:07.811Z,18.49
2022-11-12T12:21:05.784Z,18.46
2022-11-12T12:24:02.472Z,18.14
2022-11-12T12:27:03.193Z,18.44
2022-11-12T12:30:19.681Z,17.41
2022-11-12T12:33:34.234Z,17.75
2022-11-12T12:36:34.604Z,17.86
2022-11-12T12:39:30.627Z,17.91
2022-11-12T12:42:29.004Z,17.60
2022-11-12T12:45:46.036Z,18.05
2022-11-12T12:48:42.704Z,18.32
2022-11-12T12:51:31.292Z,18.53
2022-11-12T12:54:35.257Z,18.53
2022-11-12T12:57:39.579Z,18.80
2022-11-12T13:00:30.201Z,18.93
2022-11-12T13:03:48.681Z,19.00
2022-11-12T13:06:46.420Z,18.92
2022-11-12T13:09:33.244Z,19.02
2022-11-12T13:12:18.861Z,19.00
2022-11-12T13:15:16.148Z,18.46
2022-11-12T13:18:01.706Z,17.90
2022-11-12T13:21:14.636Z,17.83
2022-11-12T13:24:08.450Z,17.59
2022-11-12T13:27:01.151Z,17.38
2022-11-12T13:29:47.977Z,17.08
2022-11-12T13:32:48.884Z,16.63
2022-11-12T13:35:41.107Z,16.47
2022-11-12T13:38:27.162Z,16.41
2022-11-12T13:41:40.577Z,16.34
2022-11-12T13:44:27.928Z,16.41
2022-11-12T13:47:21.589Z,16.26
2022-11-12T13:50:18.185Z,16.00
2022-11-12T13:53:11.111Z,15.77
2022-11-12T13:55:56.731Z,15.40
2022-11-12T13:58:43.577Z,14.93
2022-11-12T14:01:34.019Z,14.84
2022-11-12T14:04:24.015Z,14.73
2022-11-12T14:07:33.589Z,14.61
2022-11-12T14:10:47.156Z,14.41
2022-11-12T14:13:49.094Z,14.21
2022-11-12T14:16:59.997Z,13.99
2022-11-12T14:20:47.230Z,13.42
2022-11-12T14:23:37.355Z,13.04
2022-11-12T14:26:41.563Z,13.16
2022-11-12T14:29:31.448Z,12.85
2022-11-12T14:32:19.983Z,12.80
2022-11-12T14:35:39.045Z,12.85
2022-11-12T14:38:32.018Z,12.81
2022-11-12T14:41:23.192Z,12.87
2022-11-12T14:44:22.611Z,12.63
2022-11-12T14:47:10.281Z,12.48
2022-11-12T14:49:56.040Z,12.36
2022-11-12T14:52:47.253Z,12.24
2022-11-12T14:55:36.907Z,12.25
2022-11-12T14:58:24.148Z,12.19
2022-11-12T15:04:51.049Z,11.87
2022-11-12T15:07:54.561Z,11.75
2022-11-12T15:10:44.941Z,11.69
2022-11-12T15:13:40.318Z,11.79
2022-11-12T15:16:35.163Z,11.79
2022-11-12T15:19:28.876Z,11.75
2022-11-12T15:22:22.625Z,11.61
2022-11-12T15:25:27.897Z,11.46
2022-11-12T15:28:24.858Z,11.26
2022-11-12T15:31:21.272Z,11.07
2022-11-12T15:34:48.130Z,11.25
2022-11-12T15:37:42.395Z,11.14
2022-11-12T15:40:28.657Z,10.83
2022-11-12T15:43:18.952Z,10.60
2022-11-12T15:46:04.601Z,10.74
2022-11-12T15:48:55.600Z,10.85
2022-11-12T15:51:41.555Z,10.83
2022-11-12T15:54:27.008Z,10.54
2022-11-12T15:57:16.130Z,10.34
2022-11-12T16:00:24.297Z,10.21
2022-11-12T16:03:19.437Z,10.14
2022-11-12T16:06:08.870Z,10.02
2022-11-12T16:08:54.825Z,9.75
2022-11-12T16:11:40.440Z,9.89
2022-11-12T16:14:26.141Z,9.70
2022-11-12T16:17:17.852Z,9.77
2022-11-12T16:20:24.506Z,9.34
2022-11-12T16:23:10.478Z,9.35
2022-11-12T16:25:55.901Z,9.08
2022-11-12T16:28:41.331Z,8.93
2022-11-12T16:31:26.731Z,9.05
2022-11-12T16:34:12.515Z,8.91
2022-11-12T16:36:58.780Z,8.79
2022-11-12T16:39:44.081Z,8.77
2022-11-12T16:42:29.386Z,8.91
2022-11-12T16:45:25.282Z,9.15
2022-11-12T16:48:22.132Z,9.08
2022-11-12T16:51:16.438Z,9.30
2022-11-12T16:54:01.929Z,8.92
2022-11-12T16:56:47.531Z,7.93
2022-11-12T16:59:32.822Z,7.78
2022-11-12T17:02:18.263Z,7.68
2022-11-12T17:05:06.556Z,7.58
2022-11-12T17:07:57.293Z,7.39
2022-11-12T17:10:42.937Z,7.23
2022-11-12T17:13:28.836Z,7.05
2022-11-12T17:16:14.948Z,7.19
2022-11-12T17:19:03.900Z,7.21
2022-11-12T17:21:49.269Z,7.26
2022-11-12T17:24:34.909Z,7.08
2022-11-12T17:27:20.161Z,7.02
2022-11-12T17:30:06.628Z,6.81
2022-11-12T17:32:52.124Z,6.70
2022-11-12T17:35:37.523Z,6.61
2022-11-12T17:38:23.014Z,6.60
2022-11-12T17:41:10.068Z,6.56
2022-11-12T17:43:57.587Z,6.53
2022-11-12T17:46:44.444Z,6.60
2022-11-12T17:49:29.774Z,6.48
2022-11-12T17:52:15.382Z,6.51
2022-11-12T17:55:00.688Z,6.41
2022-11-12T17:57:46.171Z,5.96
2022-11-12T18:00:32.797Z,5.58
2022-11-12T18:03:19.220Z,5.66
2022-11-12T18:06:05.276Z,5.83
2022-11-12T18:09:16.562Z,5.83
2022-11-12T18:12:02.136Z,5.70
2022-11-12T18:14:47.434Z,5.32
2022-11-12T18:17:36.388Z,5.25
2022-11-12T18:20:22.043Z,5.28
2022-11-12T18:23:07.359Z,5.16
2022-11-12T18:25:52.800Z,5.09
2022-11-12T18:28:38.208Z,4.95
2022-11-12T18:31:26.019Z,4.90
2022-11-12T18:34:15.016Z,4.83
2022-11-12T18:37:00.485Z,4.90
2022-11-12T18:39:47.504Z,4.80
2022-11-12T18:42:32.936Z,5.05
2022-11-12T18:45:18.379Z,4.93
2022-11-12T18:48:04.861Z,4.79
2022-11-12T18:50:50.259Z,4.66
2022-11-12T18:53:36.960Z,4.43
2022-11-12T18:56:22.526Z,4.42
2022-11-12T18:59:08.864Z,4.44
2022-11-12T19:01:54.391Z,4.50
2022-11-12T19:04:45.008Z,4.48
2022-11-12T19:07:31.584Z,4.50
2022-11-12T19:10:17.463Z,4.44
2022-11-12T19:13:03.814Z,4.52
2022-11-12T19:15:49.612Z,4.70
2022-11-12T19:18:35.040Z,4.43
2022-11-12T19:21:23.648Z,4.24
2022-11-12T19:24:09.206Z,4.06
2022-11-12T19:26:54.517Z,4.06
2022-11-12T19:29:39.946Z,3.92
2022-11-12T19:32:25.482Z,3.80
2022-11-12T19:35:10.992Z,3.72
2022-11-12T19:37:56.381Z,3.77
2022-11-12T19:40:42.297Z,3.74
2022-11-12T19:43:28.450Z,3.92
2022-11-12T19:46:14.835Z,4.05
2022-11-12T19:49:00.235Z,3.79
2022-11-12T19:51:45.549Z,3.76
2022-11-12T19:54:31.082Z,3.75
2022-11-12T19:57:16.470Z,4.02
2022-11-12T20:00:01.960Z,3.73
2022-11-12T20:02:47.658Z,3.55
2022-11-12T20:05:33.267Z,3.43
2022-11-12T20:08:18.922Z,3.43
2022-11-12T20:11:05.735Z,3.41
2022-11-12T20:13:54.707Z,3.27
2022-11-12T20:16:40.132Z,3.14
2022-11-12T20:19:26.284Z,3.07
2022-11-12T20:22:11.992Z,3.15
2022-11-12T20:24:57.737Z,3.13
2022-11-12T20:27:43.423Z,3.16
2022-11-12T20:30:28.671Z,3.18
2022-11-12T20:33:15.377Z,3.10
2022-11-12T20:36:13.263Z,2.99
2022-11-12T20:38:59.424Z,2.94
2022-11-12T20:41:45.088Z,3.35
2022-11-12T20:44:30.452Z,3.08
2022-11-12T20:47:15.833Z,3.00
2022-11-12T20:50:01.449Z,3.02
2022-11-12T20:52:46.684Z,2.97
2022-11-12T20:55:32.625Z,2.81
2022-11-12T20:58:18.024Z,2.98
2022-11-12T21:01:05.833Z,2.70
2022-11-12T21:03:52.304Z,2.62
2022-11-12T21:06:37.856Z,2.62
2022-11-12T21:09:23.871Z,2.60
2022-11-12T21:12:09.563Z,2.55
2022-11-12T21:14:54.955Z,2.45
2022-11-12T21:17:40.460Z,2.42
2022-11-12T21:20:25.848Z,2.29
2022-11-12T21:23:11.237Z,2.21
2022-11-12T21:26:04.491Z,2.23
2022-11-12T21:28:53.367Z,2.37
2022-11-12T21:31:38.723Z,2.32
2022-11-12T21:34:24.183Z,2.48
2022-11-12T21:37:09.600Z,2.62
2022-11-12T21:39:54.843Z,2.55
2022-11-12T21:42:46.446Z,2.43
2022-11-12T21:45:31.851Z,2.40
2022-11-12T21:48:17.377Z,2.45
2022-11-12T21:51:08.742Z,2.48
2022-11-12T21:53:57.679Z,2.76
2022-11-12T21:56:43.995Z,2.58
2022-11-12T21:59:29.649Z,2.54
2022-11-12T22:02:15.092Z,2.35
2022-11-12T22:05:00.520Z,2.45
2022-11-12T22:07:45.827Z,2.40
2022-11-12T22:10:31.409Z,2.59
2022-11-12T22:13:32.030Z,2.83
2022-11-12T22:16:22.088Z,2.95
2022-11-12T22:19:07.480Z,2.77
2022-11-12T22:21:52.888Z,3.03
2022-11-12T22:24:38.401Z,3.06
2022-11-12T22:27:25.594Z,2.93
2022-11-12T22:30:11.915Z,2.55
2022-11-12T22:32:57.546Z,2.29
2022-11-12T22:35:42.857Z,2.11
2022-11-12T22:38:45.636Z,2.12
2022-11-12T22:41:32.121Z,2.57
2022-11-12T22:44:19.061Z,2.48
2022-11-12T22:47:04.681Z,2.65
2022-11-12T22:49:50.295Z,2.47
2022-11-12T22:52:35.844Z,2.64
2022-11-12T22:55:21.184Z,2.57
2022-11-12T22:58:06.557Z,2.26
2022-11-12T23:00:52.176Z,2.24
2022-11-12T23:03:37.779Z,1.90
2022-11-12T23:06:23.725Z,1.77
2022-11-12T23:09:16.388Z,1.73
2022-11-12T23:12:01.928Z,1.77
2022-11-12T23:14:47.181Z,2.32
2022-11-12T23:17:32.469Z,2.36
2022-11-12T23:20:18.028Z,2.03
2022-11-12T23:23:03.418Z,1.69
2022-11-12T23:25:48.803Z,1.52
2022-11-12T23:28:35.204Z,1.42
2022-11-12T23:31:28.474Z,1.39
2022-11-12T23:34:14.011Z,1.32
2022-11-12T23:36:59.322Z,1.17
2022-11-12T23:39:44.594Z,1.12
2022-11-12T23:42:30.263Z,1.07
2022-11-12T23:45:15.692Z,1.04
2022-11-12T23:48:01.077Z,1.05
2022-11-12T23:50:48.358Z,1.04
2022-11-12T23:53:36.448Z,1.01
2022-11-12T23:56:22.123Z,0.99
2022-11-12T23:59:07.607Z,1.25
